Back to Top

Language: 

My Weather Underground Personal Weather Station Historical Data with Graphs...

Delerius Weather Station Historical Data
Daily Summary for January 22, 2017 Units:  Metric    English   Both
« Previous Day
Next Day »
Daily Weekly Monthly Yearly Custom
  High: Low: Average:
Temperature: 3.3 °C -0.7 °C 1.8 °C
Dew Point: 2.1 °C -2 °C 0.5 °C
Humidity: 96 % 83 % 91 %
Wind Speed: 11.3 km/h 0 km/h 2.4 km/h
Wind Gust: -1607.7 km/h - -
Wind:- - South
Pressure: 1026.6 hPa 1023.6 hPa -
Precipitation: 0 mm    
Historical Graphs
 
 
Tabular Data for January 22, 2017
Time Temperature Dew Point Pressure Wind Wind Speed Wind Gust Humidity Rainfall Rate (Hourly) solar Conditions
00:01 3.1 °C 1.1 °C 1024.6 hPa SE 4.8 km/h -1607.7 km/h 87 % 0 mm 0 W/m2
00:06 3.1 °C 1.1 °C 1024.6 hPa SE 4.8 km/h -1607.7 km/h 87 % 0 mm 0 W/m2
00:11 3.1 °C 1.1 °C 1024.6 hPa SE 4.8 km/h -1607.7 km/h 87 % 0 mm 0 W/m2
00:16 3.1 °C 1.1 °C 1024.6 hPa SE 4.8 km/h -1607.7 km/h 87 % 0 mm 0 W/m2
00:21 3.1 °C 1.1 °C 1024.6 hPa SE 4.8 km/h -1607.7 km/h 87 % 0 mm 0 W/m2
00:26 3 °C 1.1 °C 1024.3 hPa East 3.2 km/h -1607.7 km/h 87 % 0 mm 0 W/m2
00:31 3 °C 1.1 °C 1024.3 hPa East 3.2 km/h -1607.7 km/h 87 % 0 mm 0 W/m2
00:36 3 °C 1.1 °C 1024.3 hPa East 3.2 km/h -1607.7 km/h 87 % 0 mm 0 W/m2
00:41 2.9 °C 0.8 °C 1024.3 hPa East 4.8 km/h -1607.7 km/h 86 % 0 mm 0 W/m2
00:46 2.9 °C 0.8 °C 1024.3 hPa East 4.8 km/h -1607.7 km/h 86 % 0 mm 0 W/m2
00:51 2.9 °C 0.8 °C 1024.3 hPa East 4.8 km/h -1607.7 km/h 86 % 0 mm 0 W/m2
00:56 2.8 °C 0.7 °C 1024.3 hPa East 4.8 km/h -1607.7 km/h 86 % 0 mm 0 W/m2
01:01 2.8 °C 0.7 °C 1024.3 hPa East 4.8 km/h -1607.7 km/h 86 % 0 mm 0 W/m2
01:06 2.8 °C 0.7 °C 1024.3 hPa East 4.8 km/h -1607.7 km/h 86 % 0 mm 0 W/m2
01:11 2.8 °C 0.7 °C 1024.3 hPa ESE 6.4 km/h -1607.7 km/h 86 % 0 mm 0 W/m2
01:16 2.8 °C 0.7 °C 1024.3 hPa ESE 6.4 km/h -1607.7 km/h 86 % 0 mm 0 W/m2
01:21 2.8 °C 0.7 °C 1024.3 hPa ESE 6.4 km/h -1607.7 km/h 86 % 0 mm 0 W/m2
01:26 2.8 °C 0.7 °C 1024.3 hPa SE 8 km/h -1607.7 km/h 86 % 0 mm 0 W/m2
01:31 2.8 °C 0.7 °C 1024.3 hPa SE 8 km/h -1607.7 km/h 86 % 0 mm 0 W/m2
01:36 2.8 °C 0.7 °C 1024.3 hPa SE 8 km/h -1607.7 km/h 86 % 0 mm 0 W/m2
01:41 2.8 °C 0.5 °C 1024.3 hPa SE 9.7 km/h -1607.7 km/h 85 % 0 mm 0 W/m2
01:46 2.8 °C 0.5 °C 1024.3 hPa SE 9.7 km/h -1607.7 km/h 85 % 0 mm 0 W/m2
01:51 2.8 °C 0.5 °C 1024.3 hPa SE 9.7 km/h -1607.7 km/h 85 % 0 mm 0 W/m2
01:56 2.7 °C 0.1 °C 1023.9 hPa SE 11.3 km/h -1607.7 km/h 83 % 0 mm 0 W/m2
02:01 2.7 °C 0.1 °C 1023.9 hPa SE 11.3 km/h -1607.7 km/h 83 % 0 mm 0 W/m2
02:06 2.7 °C 0.1 °C 1023.9 hPa SE 11.3 km/h -1607.7 km/h 83 % 0 mm 0 W/m2
02:11 2.7 °C 0.2 °C 1023.9 hPa SSE 6.4 km/h -1607.7 km/h 84 % 0 mm 0 W/m2
02:16 2.7 °C 0.2 °C 1023.9 hPa SSE 6.4 km/h -1607.7 km/h 84 % 0 mm 0 W/m2
02:21 2.7 °C 0.2 °C 1023.9 hPa SSE 6.4 km/h -1607.7 km/h 84 % 0 mm 0 W/m2
02:26 2.6 °C 0.3 °C 1023.9 hPa SE 4.8 km/h -1607.7 km/h 85 % 0 mm 0 W/m2
02:31 2.6 °C 0.3 °C 1023.9 hPa SE 4.8 km/h -1607.7 km/h 85 % 0 mm 0 W/m2
02:36 2.6 °C 0.3 °C 1023.9 hPa SE 4.8 km/h -1607.7 km/h 85 % 0 mm 0 W/m2
02:41 2.3 °C 0.2 °C 1023.6 hPa SSE 1.6 km/h -1607.7 km/h 86 % 0 mm 0 W/m2
02:46 2.3 °C 0.2 °C 1023.6 hPa SSE 1.6 km/h -1607.7 km/h 86 % 0 mm 0 W/m2
02:51 2.3 °C 0.2 °C 1023.6 hPa SSE 1.6 km/h -1607.7 km/h 86 % 0 mm 0 W/m2
02:56 1.9 °C 0 °C 1023.9 hPa SE 1.6 km/h -1607.7 km/h 87 % 0 mm 0 W/m2
03:01 1.9 °C 0 °C 1023.9 hPa SE 1.6 km/h -1607.7 km/h 87 % 0 mm 0 W/m2
03:06 1.9 °C 0 °C 1023.9 hPa SE 1.6 km/h -1607.7 km/h 87 % 0 mm 0 W/m2
03:11 1.6 °C -0.2 °C 1023.9 hPa SSE 4.8 km/h -1607.7 km/h 88 % 0 mm 0 W/m2
03:16 1.6 °C -0.2 °C 1023.9 hPa SSE 4.8 km/h -1607.7 km/h 88 % 0 mm 0 W/m2
03:21 1.6 °C -0.2 °C 1023.9 hPa SSE 4.8 km/h -1607.7 km/h 88 % 0 mm 0 W/m2
03:26 1.2 °C -0.4 °C 1023.6 hPa Calm   -1607.7 km/h 89 % 0 mm 0 W/m2
03:31 1.2 °C -0.4 °C 1023.6 hPa Calm   -1607.7 km/h 89 % 0 mm 0 W/m2
03:36 1.2 °C -0.4 °C 1023.6 hPa Calm   -1607.7 km/h 89 % 0 mm 0 W/m2
03:41 0.9 °C -0.6 °C 1023.9 hPa SSE 1.6 km/h -1607.7 km/h 90 % 0 mm 0 W/m2
03:46 0.9 °C -0.6 °C 1023.9 hPa SSE 1.6 km/h -1607.7 km/h 90 % 0 mm 0 W/m2
03:51 0.9 °C -0.6 °C 1023.9 hPa SSE 1.6 km/h -1607.7 km/h 90 % 0 mm 0 W/m2
03:56 0.7 °C -0.6 °C 1023.9 hPa Calm   -1607.7 km/h 91 % 0 mm 0 W/m2
04:01 0.7 °C -0.6 °C 1023.9 hPa Calm   -1607.7 km/h 91 % 0 mm 0 W/m2
04:06 0.7 °C -0.6 °C 1023.9 hPa Calm   -1607.7 km/h 91 % 0 mm 0 W/m2
04:11 0.4 °C -0.7 °C 1023.9 hPa SW 1.6 km/h -1607.7 km/h 92 % 0 mm 0 W/m2
04:16 0.4 °C -0.7 °C 1023.9 hPa SW 1.6 km/h -1607.7 km/h 92 % 0 mm 0 W/m2
04:21 0.4 °C -0.7 °C 1023.9 hPa SW 1.6 km/h -1607.7 km/h 92 % 0 mm 0 W/m2
04:26 0.3 °C -0.8 °C 1023.9 hPa SSW 9.7 km/h -1607.7 km/h 92 % 0 mm 0 W/m2
04:31 0.3 °C -0.8 °C 1023.9 hPa SSW 9.7 km/h -1607.7 km/h 92 % 0 mm 0 W/m2
04:36 0.3 °C -0.8 °C 1023.9 hPa SSW 9.7 km/h -1607.7 km/h 92 % 0 mm 0 W/m2
04:41 0.3 °C -1 °C 1023.9 hPa SSW 4.8 km/h -1607.7 km/h 91 % 0 mm 0 W/m2
04:46 0.3 °C -1 °C 1023.9 hPa SSW 4.8 km/h -1607.7 km/h 91 % 0 mm 0 W/m2
04:51 0.3 °C -1 °C 1023.9 hPa SSW 4.8 km/h -1607.7 km/h 91 % 0 mm 0 W/m2
04:56 0.1 °C -1.2 °C 1023.9 hPa Calm   -1607.7 km/h 91 % 0 mm 0 W/m2
05:01 0.1 °C -1.2 °C 1023.9 hPa Calm   -1607.7 km/h 91 % 0 mm 0 W/m2
05:06 0.1 °C -1.2 °C 1023.9 hPa Calm   -1607.7 km/h 91 % 0 mm 0 W/m2
05:11 -0.3 °C -1.6 °C 1023.9 hPa Calm   -1607.7 km/h 91 % 0 mm 0 W/m2
05:16 -0.3 °C -1.6 °C 1023.9 hPa Calm   -1607.7 km/h 91 % 0 mm 0 W/m2
05:21 -0.3 °C -1.6 °C 1023.9 hPa Calm   -1607.7 km/h 91 % 0 mm 0 W/m2
05:26 -0.3 °C -1.5 °C 1023.9 hPa Calm   -1607.7 km/h 92 % 0 mm 0 W/m2
05:31 -0.3 °C -1.5 °C 1023.9 hPa Calm   -1607.7 km/h 92 % 0 mm 0 W/m2
05:36 -0.3 °C -1.5 °C 1023.9 hPa Calm   -1607.7 km/h 92 % 0 mm 0 W/m2
05:41 -0.4 °C -1.7 °C 1023.9 hPa Calm   -1607.7 km/h 91 % 0 mm 0 W/m2
05:46 -0.4 °C -1.7 °C 1023.9 hPa Calm   -1607.7 km/h 91 % 0 mm 0 W/m2
05:51 -0.4 °C -1.7 °C 1023.9 hPa Calm   -1607.7 km/h 91 % 0 mm 0 W/m2
05:56 -0.6 °C -1.7 °C 1023.9 hPa SSW 1.6 km/h -1607.7 km/h 92 % 0 mm 0 W/m2
06:01 -0.6 °C -1.7 °C 1023.9 hPa SSW 1.6 km/h -1607.7 km/h 92 % 0 mm 0 W/m2
06:06 -0.6 °C -1.7 °C 1023.9 hPa SSW 1.6 km/h -1607.7 km/h 92 % 0 mm 0 W/m2
06:11 -0.6 °C -1.7 °C 1023.9 hPa SSW 4.8 km/h -1607.7 km/h 92 % 0 mm 0 W/m2
06:16 -0.6 °C -1.7 °C 1023.9 hPa SSW 4.8 km/h -1607.7 km/h 92 % 0 mm 0 W/m2
06:21 -0.6 °C -1.7 °C 1023.9 hPa SSW 4.8 km/h -1607.7 km/h 92 % 0 mm 0 W/m2
06:26 -0.6 °C -1.7 °C 1024.3 hPa SW 6.4 km/h -1607.7 km/h 92 % 0 mm 0 W/m2
06:31 -0.6 °C -1.7 °C 1024.3 hPa SW 6.4 km/h -1607.7 km/h 92 % 0 mm 0 W/m2
06:36 -0.6 °C -1.7 °C 1024.3 hPa SW 6.4 km/h -1607.7 km/h 92 % 0 mm 0 W/m2
06:41 -0.3 °C -1.6 °C 1023.9 hPa SSW 3.2 km/h -1607.7 km/h 91 % 0 mm 0 W/m2
06:46 -0.3 °C -1.6 °C 1023.9 hPa SSW 3.2 km/h -1607.7 km/h 91 % 0 mm 0 W/m2
06:51 -0.3 °C -1.6 °C 1023.9 hPa SSW 3.2 km/h -1607.7 km/h 91 % 0 mm 0 W/m2
06:56 -0.4 °C -1.8 °C 1023.9 hPa Calm   -1607.7 km/h 90 % 0 mm 0 W/m2
07:01 -0.4 °C -1.8 °C 1023.9 hPa Calm   -1607.7 km/h 90 % 0 mm 0 W/m2
07:06 -0.4 °C -1.8 °C 1023.9 hPa Calm   -1607.7 km/h 90 % 0 mm 0 W/m2
07:11 -0.7 °C -1.9 °C 1023.9 hPa Calm   -1607.7 km/h 91 % 0 mm 0 W/m2
07:16 -0.7 °C -1.9 °C 1023.9 hPa Calm   -1607.7 km/h 91 % 0 mm 0 W/m2
07:21 -0.7 °C -1.9 °C 1023.9 hPa Calm   -1607.7 km/h 91 % 0 mm 0 W/m2
07:26 -0.7 °C -2 °C 1024.3 hPa SSW 1.6 km/h -1607.7 km/h 91 % 0 mm 0 W/m2
07:31 -0.7 °C -2 °C 1024.3 hPa SSW 1.6 km/h -1607.7 km/h 91 % 0 mm 0 W/m2
07:36 -0.7 °C -2 °C 1024.3 hPa SSW 1.6 km/h -1607.7 km/h 91 % 0 mm 0 W/m2
07:41 -0.7 °C -1.9 °C 1024.3 hPa SE 1.6 km/h -1607.7 km/h 91 % 0 mm 0 W/m2
07:46 -0.7 °C -1.9 °C 1024.3 hPa SE 1.6 km/h -1607.7 km/h 91 % 0 mm 0 W/m2
07:51 -0.7 °C -1.9 °C 1024.3 hPa SE 1.6 km/h -1607.7 km/h 91 % 0 mm 0 W/m2
07:56 -0.6 °C -1.7 °C 1024.3 hPa South 4.8 km/h -1607.7 km/h 92 % 0 mm 0 W/m2
08:01 -0.6 °C -1.7 °C 1024.3 hPa South 4.8 km/h -1607.7 km/h 92 % 0 mm 0 W/m2
08:06 -0.6 °C -1.7 °C 1024.3 hPa South 4.8 km/h -1607.7 km/h 92 % 0 mm 0 W/m2
08:11 -0.5 °C -1.8 °C 1024.3 hPa SSW 4.8 km/h -1607.7 km/h 91 % 0 mm 8 W/m2
08:16 -0.5 °C -1.8 °C 1024.3 hPa SSW 4.8 km/h -1607.7 km/h 91 % 0 mm 8 W/m2
08:21 -0.5 °C -1.8 °C 1024.3 hPa SSW 4.8 km/h -1607.7 km/h 91 % 0 mm 8 W/m2
08:26 -0.4 °C -1.7 °C 1024.6 hPa SW 4.8 km/h -1607.7 km/h 91 % 0 mm 15 W/m2
08:31 -0.4 °C -1.7 °C 1024.6 hPa SW 4.8 km/h -1607.7 km/h 91 % 0 mm 15 W/m2
08:36 -0.4 °C -1.7 °C 1024.6 hPa SW 4.8 km/h -1607.7 km/h 91 % 0 mm 15 W/m2
08:41 -0.3 °C -1.5 °C 1024.6 hPa SW 4.8 km/h -1607.7 km/h 92 % 0 mm 14 W/m2
08:46 -0.3 °C -1.5 °C 1024.6 hPa SW 4.8 km/h -1607.7 km/h 92 % 0 mm 14 W/m2
08:51 -0.3 °C -1.5 °C 1024.6 hPa SW 4.8 km/h -1607.7 km/h 92 % 0 mm 14 W/m2
08:56 -0.2 °C -1.4 °C 1024.9 hPa SW 3.2 km/h -1607.7 km/h 91 % 0 mm 12 W/m2
09:01 -0.2 °C -1.4 °C 1024.9 hPa SW 3.2 km/h -1607.7 km/h 91 % 0 mm 12 W/m2
09:06 -0.2 °C -1.4 °C 1024.9 hPa SW 3.2 km/h -1607.7 km/h 91 % 0 mm 12 W/m2
09:11 0 °C -1.3 °C 1024.6 hPa SW 1.6 km/h -1607.7 km/h 91 % 0 mm 13 W/m2
09:16 0 °C -1.3 °C 1024.6 hPa SW 1.6 km/h -1607.7 km/h 91 % 0 mm 13 W/m2
09:21 0 °C -1.3 °C 1024.6 hPa SW 1.6 km/h -1607.7 km/h 91 % 0 mm 13 W/m2
09:26 0.2 °C -1.1 °C 1024.6 hPa SW 1.6 km/h -1607.7 km/h 91 % 0 mm 25 W/m2
09:31 0.2 °C -1.1 °C 1024.6 hPa SW 1.6 km/h -1607.7 km/h 91 % 0 mm 25 W/m2
09:36 0.2 °C -1.1 °C 1024.6 hPa SW 1.6 km/h -1607.7 km/h 91 % 0 mm 25 W/m2
09:41 0.6 °C -0.7 °C 1024.6 hPa West 3.2 km/h -1607.7 km/h 91 % 0 mm 42 W/m2
09:46 0.6 °C -0.7 °C 1024.6 hPa West 3.2 km/h -1607.7 km/h 91 % 0 mm 42 W/m2
09:51 0.6 °C -0.7 °C 1024.6 hPa West 3.2 km/h -1607.7 km/h 91 % 0 mm 42 W/m2
09:56 0.9 °C -0.3 °C 1024.6 hPa West 1.6 km/h -1607.7 km/h 91 % 0 mm 54 W/m2
10:01 0.9 °C -0.3 °C 1024.6 hPa West 1.6 km/h -1607.7 km/h 91 % 0 mm 54 W/m2
10:06 0.9 °C -0.3 °C 1024.6 hPa West 1.6 km/h -1607.7 km/h 91 % 0 mm 54 W/m2
10:11 1.2 °C -0.1 °C 1024.9 hPa Calm   -1607.7 km/h 91 % 0 mm 61 W/m2
10:16 1.2 °C -0.1 °C 1024.9 hPa Calm   -1607.7 km/h 91 % 0 mm 61 W/m2
10:21 1.2 °C -0.1 °C 1024.9 hPa Calm   -1607.7 km/h 91 % 0 mm 61 W/m2
10:26 1.5 °C 0.1 °C 1024.9 hPa Calm   -1607.7 km/h 90 % 0 mm 53 W/m2
10:31 1.5 °C 0.1 °C 1024.9 hPa Calm   -1607.7 km/h 90 % 0 mm 53 W/m2
10:36 1.5 °C 0.1 °C 1024.9 hPa Calm   -1607.7 km/h 90 % 0 mm 53 W/m2
10:41 1.7 °C 0.3 °C 1024.9 hPa Calm   -1607.7 km/h 90 % 0 mm 38 W/m2
10:46 1.7 °C 0.3 °C 1024.9 hPa Calm   -1607.7 km/h 90 % 0 mm 38 W/m2
10:51 1.7 °C 0.3 °C 1024.9 hPa Calm   -1607.7 km/h 90 % 0 mm 38 W/m2
10:56 1.9 °C 0.3 °C 1024.9 hPa Calm   -1607.7 km/h 89 % 0 mm 39 W/m2
11:01 1.9 °C 0.3 °C 1024.9 hPa Calm   -1607.7 km/h 89 % 0 mm 39 W/m2
11:06 1.9 °C 0.3 °C 1024.9 hPa Calm   -1607.7 km/h 89 % 0 mm 39 W/m2
11:11 2.1 °C 0.5 °C 1024.9 hPa Calm   -1607.7 km/h 89 % 0 mm 38 W/m2
11:16 2.1 °C 0.5 °C 1024.9 hPa Calm   -1607.7 km/h 89 % 0 mm 38 W/m2
11:21 2.1 °C 0.5 °C 1024.9 hPa Calm   -1607.7 km/h 89 % 0 mm 38 W/m2
11:26 2.3 °C 0.7 °C 1024.9 hPa Calm   -1607.7 km/h 89 % 0 mm 40 W/m2
11:31 2.3 °C 0.7 °C 1024.9 hPa Calm   -1607.7 km/h 89 % 0 mm 40 W/m2
11:36 2.3 °C 0.7 °C 1024.9 hPa Calm   -1607.7 km/h 89 % 0 mm 40 W/m2
11:41 2.5 °C 0.9 °C 1024.9 hPa SW 3.2 km/h -1607.7 km/h 89 % 0 mm 39 W/m2
11:46 2.5 °C 0.9 °C 1024.9 hPa SW 3.2 km/h -1607.7 km/h 89 % 0 mm 39 W/m2
11:51 2.5 °C 0.9 °C 1024.9 hPa SW 3.2 km/h -1607.7 km/h 89 % 0 mm 39 W/m2
11:56 2.8 °C 1.2 °C 1024.6 hPa Calm   -1607.7 km/h 89 % 0 mm 49 W/m2
12:01 2.8 °C 1.2 °C 1024.6 hPa Calm   -1607.7 km/h 89 % 0 mm 49 W/m2
12:06 2.8 °C 1.2 °C 1024.6 hPa Calm   -1607.7 km/h 89 % 0 mm 49 W/m2
12:11 2.9 °C 1.3 °C 1024.6 hPa Calm   -1607.7 km/h 89 % 0 mm 32 W/m2
12:16 2.9 °C 1.3 °C 1024.6 hPa Calm   -1607.7 km/h 89 % 0 mm 32 W/m2
12:21 2.9 °C 1.3 °C 1024.6 hPa Calm   -1607.7 km/h 89 % 0 mm 32 W/m2
12:26 3.1 °C 1.7 °C 1024.6 hPa SW 1.6 km/h -1607.7 km/h 91 % 0 mm 70 W/m2
12:31 3.1 °C 1.7 °C 1024.6 hPa SW 1.6 km/h -1607.7 km/h 91 % 0 mm 70 W/m2
12:36 3.1 °C 1.7 °C 1024.6 hPa SW 1.6 km/h -1607.7 km/h 91 % 0 mm 70 W/m2
12:41 3.3 °C 1.8 °C 1024.6 hPa South 4.8 km/h -1607.7 km/h 90 % 0 mm 29 W/m2
12:46 3.3 °C 1.8 °C 1024.6 hPa South 4.8 km/h -1607.7 km/h 90 % 0 mm 29 W/m2
12:51 3.3 °C 1.8 °C 1024.6 hPa South 4.8 km/h -1607.7 km/h 90 % 0 mm 29 W/m2
12:56 3.3 °C 1.8 °C 1024.6 hPa South 6.4 km/h -1607.7 km/h 90 % 0 mm 26 W/m2
13:01 3.3 °C 1.8 °C 1024.6 hPa South 6.4 km/h -1607.7 km/h 90 % 0 mm 26 W/m2
13:06 3.3 °C 1.8 °C 1024.6 hPa South 6.4 km/h -1607.7 km/h 90 % 0 mm 26 W/m2
13:11 3.1 °C 1.6 °C 1024.6 hPa South 6.4 km/h -1607.7 km/h 90 % 0 mm 52 W/m2
13:16 3.1 °C 1.6 °C 1024.6 hPa South 6.4 km/h -1607.7 km/h 90 % 0 mm 52 W/m2
13:21 3.1 °C 1.6 °C 1024.6 hPa South 6.4 km/h -1607.7 km/h 90 % 0 mm 52 W/m2
13:26 2.8 °C 1.4 °C 1024.6 hPa SSE 4.8 km/h -1607.7 km/h 91 % 0 mm 35 W/m2
13:31 2.8 °C 1.4 °C 1024.6 hPa SSE 4.8 km/h -1607.7 km/h 91 % 0 mm 35 W/m2
13:36 2.8 °C 1.4 °C 1024.6 hPa SSE 4.8 km/h -1607.7 km/h 91 % 0 mm 35 W/m2
13:41 2.7 °C 1.3 °C 1024.6 hPa SSE 6.4 km/h -1607.7 km/h 91 % 0 mm 37 W/m2
13:46 2.7 °C 1.3 °C 1024.6 hPa SSE 6.4 km/h -1607.7 km/h 91 % 0 mm 37 W/m2
13:51 2.7 °C 1.3 °C 1024.6 hPa SSE 6.4 km/h -1607.7 km/h 91 % 0 mm 37 W/m2
13:56 2.8 °C 1.6 °C 1024.6 hPa SSW 4.8 km/h -1607.7 km/h 92 % 0 mm 30 W/m2
14:01 2.8 °C 1.6 °C 1024.6 hPa SSW 4.8 km/h -1607.7 km/h 92 % 0 mm 30 W/m2
14:06 2.8 °C 1.6 °C 1024.6 hPa SSW 4.8 km/h -1607.7 km/h 92 % 0 mm 30 W/m2
14:11 2.9 °C 1.6 °C 1024.6 hPa South 6.4 km/h -1607.7 km/h 91 % 0 mm 21 W/m2
14:16 2.9 °C 1.6 °C 1024.6 hPa South 6.4 km/h -1607.7 km/h 91 % 0 mm 21 W/m2
14:21 2.9 °C 1.6 °C 1024.6 hPa South 6.4 km/h -1607.7 km/h 91 % 0 mm 21 W/m2
14:26 2.9 °C 1.6 °C 1024.6 hPa SSW 8 km/h -1607.7 km/h 91 % 0 mm 25 W/m2
14:31 2.9 °C 1.6 °C 1024.6 hPa SSW 8 km/h -1607.7 km/h 91 % 0 mm 25 W/m2
14:36 2.9 °C 1.6 °C 1024.6 hPa SSW 8 km/h -1607.7 km/h 91 % 0 mm 25 W/m2
14:41 2.9 °C 1.6 °C 1024.3 hPa SSW 11.3 km/h -1607.7 km/h 91 % 0 mm 31 W/m2
14:46 2.9 °C 1.6 °C 1024.3 hPa SSW 11.3 km/h -1607.7 km/h 91 % 0 mm 31 W/m2
14:51 2.9 °C 1.6 °C 1024.3 hPa SSW 11.3 km/h -1607.7 km/h 91 % 0 mm 31 W/m2
14:56 2.8 °C 1.5 °C 1024.6 hPa South 6.4 km/h -1607.7 km/h 91 % 0 mm 34 W/m2
15:01 2.8 °C 1.5 °C 1024.6 hPa South 6.4 km/h -1607.7 km/h 91 % 0 mm 34 W/m2
15:06 2.8 °C 1.5 °C 1024.6 hPa South 6.4 km/h -1607.7 km/h 91 % 0 mm 34 W/m2
15:11 2.8 °C 1.5 °C 1024.6 hPa Calm   -1607.7 km/h 91 % 0 mm 18 W/m2
15:16 2.8 °C 1.5 °C 1024.6 hPa Calm   -1607.7 km/h 91 % 0 mm 18 W/m2
15:21 2.8 °C 1.5 °C 1024.6 hPa Calm   -1607.7 km/h 91 % 0 mm 18 W/m2
15:26 2.9 °C 1.6 °C 1024.6 hPa SSW 1.6 km/h -1607.7 km/h 91 % 0 mm 13 W/m2
15:31 2.9 °C 1.6 °C 1024.6 hPa SSW 1.6 km/h -1607.7 km/h 91 % 0 mm 13 W/m2
15:36 2.9 °C 1.6 °C 1024.6 hPa SSW 1.6 km/h -1607.7 km/h 91 % 0 mm 13 W/m2
15:41 3.1 °C 1.7 °C 1024.6 hPa SW 1.6 km/h -1607.7 km/h 91 % 0 mm 11 W/m2
15:46 3.1 °C 1.7 °C 1024.6 hPa SW 1.6 km/h -1607.7 km/h 91 % 0 mm 11 W/m2
15:51 3.1 °C 1.7 °C 1024.6 hPa SW 1.6 km/h -1607.7 km/h 91 % 0 mm 11 W/m2
15:56 3.1 °C 1.8 °C 1024.6 hPa Calm   -1607.7 km/h 91 % 0 mm 8 W/m2
16:01 3.1 °C 1.8 °C 1024.6 hPa Calm   -1607.7 km/h 91 % 0 mm 8 W/m2
16:06 3.1 °C 1.8 °C 1024.6 hPa Calm   -1607.7 km/h 91 % 0 mm 8 W/m2
16:11 3.1 °C 1.7 °C 1024.6 hPa Calm   -1607.7 km/h 91 % 0 mm 1 W/m2
16:16 3.1 °C 1.7 °C 1024.6 hPa Calm   -1607.7 km/h 91 % 0 mm 1 W/m2
16:21 3.1 °C 1.7 °C 1024.6 hPa Calm   -1607.7 km/h 91 % 0 mm 1 W/m2
16:26 3 °C 1.7 °C 1024.9 hPa ENE 1.6 km/h -1607.7 km/h 91 % 0 mm 0 W/m2
16:31 3 °C 1.7 °C 1024.9 hPa ENE 1.6 km/h -1607.7 km/h 91 % 0 mm 0 W/m2
16:36 3 °C 1.7 °C 1024.9 hPa ENE 1.6 km/h -1607.7 km/h 91 % 0 mm 0 W/m2
16:41 3 °C 1.7 °C 1024.9 hPa NE 1.6 km/h -1607.7 km/h 91 % 0 mm 0 W/m2
16:46 3 °C 1.7 °C 1024.9 hPa NE 1.6 km/h -1607.7 km/h 91 % 0 mm 0 W/m2
16:51 3 °C 1.7 °C 1024.9 hPa NE 1.6 km/h -1607.7 km/h 91 % 0 mm 0 W/m2
16:56 3.1 °C 1.7 °C 1024.9 hPa NNW 1.6 km/h -1607.7 km/h 91 % 0 mm 0 W/m2
17:01 3.1 °C 1.7 °C 1024.9 hPa NNW 1.6 km/h -1607.7 km/h 91 % 0 mm 0 W/m2
17:06 3.1 °C 1.7 °C 1024.9 hPa NNW 1.6 km/h -1607.7 km/h 91 % 0 mm 0 W/m2
17:11 3.1 °C 1.7 °C 1025.3 hPa NW 1.6 km/h -1607.7 km/h 91 % 0 mm 0 W/m2
17:16 3.1 °C 1.7 °C 1025.3 hPa NW 1.6 km/h -1607.7 km/h 91 % 0 mm 0 W/m2
17:21 3.1 °C 1.7 °C 1025.3 hPa NW 1.6 km/h -1607.7 km/h 91 % 0 mm 0 W/m2
17:26 3.1 °C 1.9 °C 1025.3 hPa NW 3.2 km/h -1607.7 km/h 92 % 0 mm 0 W/m2
17:31 3.1 °C 1.9 °C 1025.3 hPa NW 3.2 km/h -1607.7 km/h 92 % 0 mm 0 W/m2
17:36 3.1 °C 1.9 °C 1025.3 hPa NW 3.2 km/h -1607.7 km/h 92 % 0 mm 0 W/m2
17:41 3.2 °C 2 °C 1025.3 hPa NW 1.6 km/h -1607.7 km/h 92 % 0 mm 0 W/m2
17:46 3.2 °C 2 °C 1025.3 hPa NW 1.6 km/h -1607.7 km/h 92 % 0 mm 0 W/m2
17:51 3.2 °C 2 °C 1025.3 hPa NW 1.6 km/h -1607.7 km/h 92 % 0 mm 0 W/m2
17:56 3.2 °C 2.1 °C 1025.3 hPa Calm   -1607.7 km/h 92 % 0 mm 0 W/m2
18:01 3.2 °C 2.1 °C 1025.3 hPa Calm   -1607.7 km/h 92 % 0 mm 0 W/m2
18:06 3.2 °C 2.1 °C 1025.3 hPa Calm   -1607.7 km/h 92 % 0 mm 0 W/m2
18:11 3.2 °C 2 °C 1025.3 hPa Calm   -1607.7 km/h 92 % 0 mm 0 W/m2
18:16 3.2 °C 2 °C 1025.3 hPa Calm   -1607.7 km/h 92 % 0 mm 0 W/m2
18:21 3.2 °C 2 °C 1025.3 hPa Calm   -1607.7 km/h 92 % 0 mm 0 W/m2
18:26 3.1 °C 1.9 °C 1025.6 hPa Calm   -1607.7 km/h 92 % 0 mm 0 W/m2
18:31 3.1 °C 1.9 °C 1025.6 hPa Calm   -1607.7 km/h 92 % 0 mm 0 W/m2
18:36 3.1 °C 1.9 °C 1025.6 hPa Calm   -1607.7 km/h 92 % 0 mm 0 W/m2
18:41 2.9 °C 1.8 °C 1025.6 hPa Calm   -1607.7 km/h 92 % 0 mm 0 W/m2
18:46 2.9 °C 1.8 °C 1025.6 hPa Calm   -1607.7 km/h 92 % 0 mm 0 W/m2
18:51 2.9 °C 1.8 °C 1025.6 hPa Calm   -1607.7 km/h 92 % 0 mm 0 W/m2
18:56 2.8 °C 1.7 °C 1025.6 hPa Calm   -1607.7 km/h 92 % 0 mm 0 W/m2
19:01 2.8 °C 1.7 °C 1025.6 hPa Calm   -1607.7 km/h 92 % 0 mm 0 W/m2
19:06 2.8 °C 1.7 °C 1025.6 hPa Calm   -1607.7 km/h 92 % 0 mm 0 W/m2
19:11 2.8 °C 1.8 °C 1025.6 hPa Calm   -1607.7 km/h 93 % 0 mm 0 W/m2
19:16 2.8 °C 1.8 °C 1025.6 hPa Calm   -1607.7 km/h 93 % 0 mm 0 W/m2
19:21 2.8 °C 1.8 °C 1025.6 hPa Calm   -1607.7 km/h 93 % 0 mm 0 W/m2
19:26 2.7 °C 1.7 °C 1025.6 hPa Calm   -1607.7 km/h 93 % 0 mm 0 W/m2
19:31 2.7 °C 1.7 °C 1025.6 hPa Calm   -1607.7 km/h 93 % 0 mm 0 W/m2
19:36 2.7 °C 1.7 °C 1025.6 hPa Calm   -1607.7 km/h 93 % 0 mm 0 W/m2
19:41 2.7 °C 1.8 °C 1025.6 hPa Calm   -1607.7 km/h 94 % 0 mm 0 W/m2
19:46 2.7 °C 1.8 °C 1025.6 hPa Calm   -1607.7 km/h 94 % 0 mm 0 W/m2
19:51 2.7 °C 1.8 °C 1025.6 hPa Calm   -1607.7 km/h 94 % 0 mm 0 W/m2
19:56 2.7 °C 1.8 °C 1025.6 hPa Calm   -1607.7 km/h 94 % 0 mm 0 W/m2
20:01 2.7 °C 1.8 °C 1025.6 hPa Calm   -1607.7 km/h 94 % 0 mm 0 W/m2
20:06 2.7 °C 1.8 °C 1025.6 hPa Calm   -1607.7 km/h 94 % 0 mm 0 W/m2
20:11 2.7 °C 1.8 °C 1026 hPa Calm   -1607.7 km/h 94 % 0 mm 0 W/m2
20:16 2.7 °C 1.8 °C 1026 hPa Calm   -1607.7 km/h 94 % 0 mm 0 W/m2
20:21 2.7 °C 1.8 °C 1026 hPa Calm   -1607.7 km/h 94 % 0 mm 0 W/m2
20:26 2.6 °C 1.7 °C 1026 hPa Calm   -1607.7 km/h 94 % 0 mm 0 W/m2
20:31 2.6 °C 1.7 °C 1026 hPa Calm   -1607.7 km/h 94 % 0 mm 0 W/m2
20:36 2.6 °C 1.7 °C 1026 hPa Calm   -1607.7 km/h 94 % 0 mm 0 W/m2
20:41 2.5 °C 1.6 °C 1026 hPa Calm   -1607.7 km/h 94 % 0 mm 0 W/m2
20:46 2.5 °C 1.6 °C 1026 hPa Calm   -1607.7 km/h 94 % 0 mm 0 W/m2
20:51 2.5 °C 1.6 °C 1026 hPa Calm   -1607.7 km/h 94 % 0 mm 0 W/m2
20:56 2.4 °C 1.6 °C 1026 hPa Calm   -1607.7 km/h 94 % 0 mm 0 W/m2
21:01 2.4 °C 1.6 °C 1026 hPa Calm   -1607.7 km/h 94 % 0 mm 0 W/m2
21:06 2.4 °C 1.6 °C 1026 hPa Calm   -1607.7 km/h 94 % 0 mm 0 W/m2
21:11 2.3 °C 1.4 °C 1025.6 hPa Calm   -1607.7 km/h 94 % 0 mm 0 W/m2
21:16 2.3 °C 1.4 °C 1025.6 hPa Calm   -1607.7 km/h 94 % 0 mm 0 W/m2
21:21 2.3 °C 1.4 °C 1025.6 hPa Calm   -1607.7 km/h 94 % 0 mm 0 W/m2
21:26 2.3 °C 1.4 °C 1026 hPa Calm   -1607.7 km/h 94 % 0 mm 0 W/m2
21:31 2.3 °C 1.4 °C 1026 hPa Calm   -1607.7 km/h 94 % 0 mm 0 W/m2
21:36 2.3 °C 1.4 °C 1026 hPa Calm   -1607.7 km/h 94 % 0 mm 0 W/m2
21:41 2.2 °C 1.3 °C 1026.3 hPa Calm   -1607.7 km/h 94 % 0 mm 0 W/m2
21:46 2.2 °C 1.3 °C 1026.3 hPa Calm   -1607.7 km/h 94 % 0 mm 0 W/m2
21:51 2.2 °C 1.3 °C 1026.3 hPa Calm   -1607.7 km/h 94 % 0 mm 0 W/m2
21:56 2 °C 1.3 °C 1026.3 hPa Calm   -1607.7 km/h 95 % 0 mm 0 W/m2
22:01 2 °C 1.3 °C 1026.3 hPa Calm   -1607.7 km/h 95 % 0 mm 0 W/m2
22:06 2 °C 1.3 °C 1026.3 hPa Calm   -1607.7 km/h 95 % 0 mm 0 W/m2
22:11 1.9 °C 1.2 °C 1026.3 hPa Calm   -1607.7 km/h 95 % 0 mm 0 W/m2
22:16 1.9 °C 1.2 °C 1026.3 hPa Calm   -1607.7 km/h 95 % 0 mm 0 W/m2
22:21 1.9 °C 1.2 °C 1026.3 hPa Calm   -1607.7 km/h 95 % 0 mm 0 W/m2
22:26 1.7 °C 0.8 °C 1026.3 hPa Calm   -1607.7 km/h 94 % 0 mm 0 W/m2
22:31 1.7 °C 0.8 °C 1026.3 hPa Calm   -1607.7 km/h 94 % 0 mm 0 W/m2
22:36 1.7 °C 0.8 °C 1026.3 hPa Calm   -1607.7 km/h 94 % 0 mm 0 W/m2
22:41 1.4 °C 0.7 °C 1026.3 hPa Calm   -1607.7 km/h 95 % 0 mm 0 W/m2
22:46 1.4 °C 0.7 °C 1026.3 hPa Calm   -1607.7 km/h 95 % 0 mm 0 W/m2
22:51 1.4 °C 0.7 °C 1026.3 hPa Calm   -1607.7 km/h 95 % 0 mm 0 W/m2
22:56 1.2 °C 0.5 °C 1026.3 hPa Calm   -1607.7 km/h 95 % 0 mm 0 W/m2
23:01 1.2 °C 0.5 °C 1026.3 hPa Calm   -1607.7 km/h 95 % 0 mm 0 W/m2
23:06 1.2 °C 0.5 °C 1026.3 hPa Calm   -1607.7 km/h 95 % 0 mm 0 W/m2
23:11 1.1 °C 0.3 °C 1026.6 hPa Calm   -1607.7 km/h 95 % 0 mm 0 W/m2
23:16 1.1 °C 0.3 °C 1026.6 hPa Calm   -1607.7 km/h 95 % 0 mm 0 W/m2
23:21 1.1 °C 0.3 °C 1026.6 hPa Calm   -1607.7 km/h 95 % 0 mm 0 W/m2
23:26 1 °C 0.4 °C 1026.6 hPa West 1.6 km/h -1607.7 km/h 96 % 0 mm 0 W/m2
23:31 1 °C 0.4 °C 1026.6 hPa West 1.6 km/h -1607.7 km/h 96 % 0 mm 0 W/m2
23:36 1 °C 0.4 °C 1026.6 hPa West 1.6 km/h -1607.7 km/h 96 % 0 mm 0 W/m2
23:41 1.2 °C 0.6 °C 1026.6 hPa North 3.2 km/h -1607.7 km/h 96 % 0 mm 0 W/m2
23:46 1.2 °C 0.6 °C 1026.6 hPa North 3.2 km/h -1607.7 km/h 96 % 0 mm 0 W/m2
23:51 1.2 °C 0.6 °C 1026.6 hPa North 3.2 km/h -1607.7 km/h 96 % 0 mm 0 W/m2
23:56 1.1 °C 0.4 °C 1026.6 hPa Calm   -1607.7 km/h 95 % 0 mm 0 W/m2
Delerius-Weather
Compliments of Weather Underground - 2.25 mb

Data updates at regular intervals.